Terminal Aerodrome Forecast
Issued by NWS Chicago, IL

Home | Current Version | Previous Version | Text Only | Print | Product List | Glossary Off
Versions: 1 2 3 4 5 6 7 8 9 10 11 12 13 14 15 16 17 18 19 20 21 22 23 24 25 26 27 28 29 30 31

000
FTUS43 KLOT 312201 AAB
TAFRFD
TAF AMD
KRFD 312201Z 3122/0118 19006KT P6SM SCT040
     FM010300 19004KT 5SM BR SCT030
      TEMPO 0109/0112 2SM BR
     FM011400 22009KT P6SM SCT030=

USA.gov is the U.S. government's official web portal to all federal, state and local government web resources and services.